sensor_id;sensor_type;location;lat;lon;timestamp;temperature;humidity
13642;DHT22;6894;52.196;9.904;2022-11-20T00:00:17;-3.90;99.90
13642;DHT22;6894;52.196;9.904;2022-11-20T00:02:43;-3.90;99.90
13642;DHT22;6894;52.196;9.904;2022-11-20T00:05:10;-3.90;99.90
13642;DHT22;6894;52.196;9.904;2022-11-20T00:07:37;-3.90;99.90
13642;DHT22;6894;52.196;9.904;2022-11-20T00:10:04;-3.90;99.90
13642;DHT22;6894;52.196;9.904;2022-11-20T00:12:32;-4.00;99.90
13642;DHT22;6894;52.196;9.904;2022-11-20T00:14:59;-4.00;99.90
13642;DHT22;6894;52.196;9.904;2022-11-20T00:17:26;-4.10;99.90
13642;DHT22;6894;52.196;9.904;2022-11-20T00:19:53;-4.20;99.90
13642;DHT22;6894;52.196;9.904;2022-11-20T00:22:19;-4.10;99.90
13642;DHT22;6894;52.196;9.904;2022-11-20T00:24:46;-4.10;99.90
13642;DHT22;6894;52.196;9.904;2022-11-20T00:27:13;-4.20;99.90
13642;DHT22;6894;52.196;9.904;2022-11-20T00:29:41;-4.30;99.90
13642;DHT22;6894;52.196;9.904;2022-11-20T00:32:07;-4.30;99.90
13642;DHT22;6894;52.196;9.904;2022-11-20T00:34:34;-4.30;99.90
13642;DHT22;6894;52.196;9.904;2022-11-20T00:37:01;-4.10;99.90
13642;DHT22;6894;52.196;9.904;2022-11-20T00:39:27;-4.30;99.90
13642;DHT22;6894;52.196;9.904;2022-11-20T00:41:54;-4.30;99.90
13642;DHT22;6894;52.196;9.904;2022-11-20T00:44:21;-4.40;99.90
13642;DHT22;6894;52.196;9.904;2022-11-20T00:46:49;-4.40;99.90
13642;DHT22;6894;52.196;9.904;2022-11-20T00:49:15;-4.40;99.90
13642;DHT22;6894;52.196;9.904;2022-11-20T00:51:42;-4.40;99.90
13642;DHT22;6894;52.196;9.904;2022-11-20T00:54:09;-4.50;99.90
13642;DHT22;6894;52.196;9.904;2022-11-20T00:56:36;-4.40;99.90
13642;DHT22;6894;52.196;9.904;2022-11-20T00:59:02;-4.40;99.90
13642;DHT22;6894;52.196;9.904;2022-11-20T01:01:29;-4.40;99.90
13642;DHT22;6894;52.196;9.904;2022-11-20T01:03:59;-4.40;99.90
13642;DHT22;6894;52.196;9.904;2022-11-20T01:06:27;-4.40;99.90
13642;DHT22;6894;52.196;9.904;2022-11-20T01:08:57;-4.40;99.90
13642;DHT22;6894;52.196;9.904;2022-11-20T01:11:25;-4.30;99.90
13642;DHT22;6894;52.196;9.904;2022-11-20T01:13:53;-4.20;99.90
13642;DHT22;6894;52.196;9.904;2022-11-20T01:16:22;-4.40;99.90
13642;DHT22;6894;52.196;9.904;2022-11-20T01:18:50;-4.40;99.90
13642;DHT22;6894;52.196;9.904;2022-11-20T01:21:21;-4.40;99.90
13642;DHT22;6894;52.196;9.904;2022-11-20T01:23:49;-4.40;99.90
13642;DHT22;6894;52.196;9.904;2022-11-20T01:26:17;-4.50;99.90
13642;DHT22;6894;52.196;9.904;2022-11-20T01:28:44;-4.50;99.90
13642;DHT22;6894;52.196;9.904;2022-11-20T01:31:13;-4.60;99.90
13642;DHT22;6894;52.196;9.904;2022-11-20T01:33:41;-4.50;99.90
13642;DHT22;6894;52.196;9.904;2022-11-20T01:36:09;-4.60;99.90
13642;DHT22;6894;52.196;9.904;2022-11-20T01:38:37;-4.60;99.90
13642;DHT22;6894;52.196;9.904;2022-11-20T01:41:05;-4.60;99.90
13642;DHT22;6894;52.196;9.904;2022-11-20T01:43:32;-4.60;99.90
13642;DHT22;6894;52.196;9.904;2022-11-20T01:46:02;-4.60;99.90
13642;DHT22;6894;52.196;9.904;2022-11-20T01:48:33;-4.60;99.90
13642;DHT22;6894;52.196;9.904;2022-11-20T01:51:02;-4.50;99.90
13642;DHT22;6894;52.196;9.904;2022-11-20T01:53:33;-4.50;99.90
13642;DHT22;6894;52.196;9.904;2022-11-20T01:56:05;-4.60;99.90
13642;DHT22;6894;52.196;9.904;2022-11-20T01:58:37;-4.60;99.90
13642;DHT22;6894;52.196;9.904;2022-11-20T02:01:05;-4.60;99.90
13642;DHT22;6894;52.196;9.904;2022-11-20T02:03:32;-4.50;99.90
13642;DHT22;6894;52.196;9.904;2022-11-20T02:06:04;-4.60;99.90
13642;DHT22;6894;52.196;9.904;2022-11-20T02:08:34;-4.70;99.90
13642;DHT22;6894;52.196;9.904;2022-11-20T02:11:03;-4.80;99.90
13642;DHT22;6894;52.196;9.904;2022-11-20T02:13:30;-4.80;99.90
13642;DHT22;6894;52.196;9.904;2022-11-20T02:16:17;-4.80;99.90
13642;DHT22;6894;52.196;9.904;2022-11-20T02:18:46;-4.80;99.90
13642;DHT22;6894;52.196;9.904;2022-11-20T02:21:25;-4.80;99.90
13642;DHT22;6894;52.196;9.904;2022-11-20T02:24:01;-4.80;99.90
13642;DHT22;6894;52.196;9.904;2022-11-20T02:26:30;-4.80;99.90
13642;DHT22;6894;52.196;9.904;2022-11-20T02:28:58;-4.80;99.90
13642;DHT22;6894;52.196;9.904;2022-11-20T02:31:25;-4.80;99.90
13642;DHT22;6894;52.196;9.904;2022-11-20T02:33:55;-4.70;99.90
13642;DHT22;6894;52.196;9.904;2022-11-20T02:36:22;-4.70;99.90
13642;DHT22;6894;52.196;9.904;2022-11-20T02:38:50;-4.60;99.90
13642;DHT22;6894;52.196;9.904;2022-11-20T02:41:18;-4.70;99.90
13642;DHT22;6894;52.196;9.904;2022-11-20T02:43:45;-4.70;99.90
13642;DHT22;6894;52.196;9.904;2022-11-20T02:46:12;-4.50;99.90
13642;DHT22;6894;52.196;9.904;2022-11-20T02:48:38;-4.60;99.90
13642;DHT22;6894;52.196;9.904;2022-11-20T02:51:05;-4.60;99.90
13642;DHT22;6894;52.196;9.904;2022-11-20T02:53:32;-4.60;99.90
13642;DHT22;6894;52.196;9.904;2022-11-20T02:55:58;-4.60;99.90
13642;DHT22;6894;52.196;9.904;2022-11-20T02:58:26;-4.60;99.90
13642;DHT22;6894;52.196;9.904;2022-11-20T03:00:53;-4.60;99.90
13642;DHT22;6894;52.196;9.904;2022-11-20T03:03:20;-4.70;99.90
13642;DHT22;6894;52.196;9.904;2022-11-20T03:05:46;-4.70;99.90
13642;DHT22;6894;52.196;9.904;2022-11-20T03:08:13;-4.80;99.90
13642;DHT22;6894;52.196;9.904;2022-11-20T03:10:40;-4.80;99.90
13642;DHT22;6894;52.196;9.904;2022-11-20T03:13:07;-4.80;99.90
13642;DHT22;6894;52.196;9.904;2022-11-20T03:15:35;-4.80;99.90
13642;DHT22;6894;52.196;9.904;2022-11-20T03:18:02;-4.60;99.90
13642;DHT22;6894;52.196;9.904;2022-11-20T03:20:29;-4.80;99.90
13642;DHT22;6894;52.196;9.904;2022-11-20T03:22:56;-4.80;99.90
13642;DHT22;6894;52.196;9.904;2022-11-20T03:25:22;-4.80;99.90
13642;DHT22;6894;52.196;9.904;2022-11-20T03:27:49;-4.80;99.90
13642;DHT22;6894;52.196;9.904;2022-11-20T03:30:16;-4.80;99.90
13642;DHT22;6894;52.196;9.904;2022-11-20T03:32:44;-4.80;99.90
13642;DHT22;6894;52.196;9.904;2022-11-20T03:35:11;-4.80;99.90
13642;DHT22;6894;52.196;9.904;2022-11-20T03:37:37;-4.90;99.90
13642;DHT22;6894;52.196;9.904;2022-11-20T03:40:05;-4.90;99.90
13642;DHT22;6894;52.196;9.904;2022-11-20T03:42:33;-4.90;99.90
13642;DHT22;6894;52.196;9.904;2022-11-20T03:45:11;-4.90;99.90
13642;DHT22;6894;52.196;9.904;2022-11-20T03:47:38;-4.90;99.90
13642;DHT22;6894;52.196;9.904;2022-11-20T03:50:07;-4.90;99.90
13642;DHT22;6894;52.196;9.904;2022-11-20T03:52:34;-4.90;99.90
13642;DHT22;6894;52.196;9.904;2022-11-20T03:55:00;-4.90;99.90
13642;DHT22;6894;52.196;9.904;2022-11-20T03:57:27;-4.90;99.90
13642;DHT22;6894;52.196;9.904;2022-11-20T03:59:54;-5.00;99.90
13642;DHT22;6894;52.196;9.904;2022-11-20T04:02:21;-4.80;99.90
13642;DHT22;6894;52.196;9.904;2022-11-20T04:04:47;-5.00;99.90
13642;DHT22;6894;52.196;9.904;2022-11-20T04:07:15;-4.70;99.90
13642;DHT22;6894;52.196;9.904;2022-11-20T04:09:42;-5.10;99.90
13642;DHT22;6894;52.196;9.904;2022-11-20T04:12:09;-5.20;99.90
13642;DHT22;6894;52.196;9.904;2022-11-20T04:14:35;-5.10;99.90
13642;DHT22;6894;52.196;9.904;2022-11-20T04:17:03;-5.10;99.90
13642;DHT22;6894;52.196;9.904;2022-11-20T04:19:30;-5.00;99.90
13642;DHT22;6894;52.196;9.904;2022-11-20T04:21:56;-4.90;99.90
13642;DHT22;6894;52.196;9.904;2022-11-20T04:24:24;-5.10;99.90
13642;DHT22;6894;52.196;9.904;2022-11-20T04:26:52;-5.10;99.90
13642;DHT22;6894;52.196;9.904;2022-11-20T04:29:19;-5.10;99.90
13642;DHT22;6894;52.196;9.904;2022-11-20T04:31:45;-5.10;99.90
13642;DHT22;6894;52.196;9.904;2022-11-20T04:34:12;-5.10;99.90
13642;DHT22;6894;52.196;9.904;2022-11-20T04:36:39;-5.00;99.90
13642;DHT22;6894;52.196;9.904;2022-11-20T04:39:06;-5.10;99.90
13642;DHT22;6894;52.196;9.904;2022-11-20T04:41:35;-5.00;99.90
13642;DHT22;6894;52.196;9.904;2022-11-20T04:44:04;-5.00;99.90
13642;DHT22;6894;52.196;9.904;2022-11-20T04:46:33;-5.00;99.90
13642;DHT22;6894;52.196;9.904;2022-11-20T04:49:01;-5.00;99.90
13642;DHT22;6894;52.196;9.904;2022-11-20T04:51:28;-5.00;99.90
13642;DHT22;6894;52.196;9.904;2022-11-20T04:53:55;-5.00;99.90
13642;DHT22;6894;52.196;9.904;2022-11-20T04:56:22;-4.90;99.90
13642;DHT22;6894;52.196;9.904;2022-11-20T04:58:50;-4.90;99.90
13642;DHT22;6894;52.196;9.904;2022-11-20T05:01:18;-4.80;99.90
13642;DHT22;6894;52.196;9.904;2022-11-20T05:03:45;-4.80;99.90
13642;DHT22;6894;52.196;9.904;2022-11-20T05:06:14;-4.60;99.90
13642;DHT22;6894;52.196;9.904;2022-11-20T05:08:41;-4.60;99.90
13642;DHT22;6894;52.196;9.904;2022-11-20T05:11:10;-4.60;99.90
13642;DHT22;6894;52.196;9.904;2022-11-20T05:13:37;-4.40;99.90
13642;DHT22;6894;52.196;9.904;2022-11-20T05:16:07;-4.40;99.90
13642;DHT22;6894;52.196;9.904;2022-11-20T05:18:34;-4.50;99.90
13642;DHT22;6894;52.196;9.904;2022-11-20T05:21:02;-4.40;99.90
13642;DHT22;6894;52.196;9.904;2022-11-20T05:23:30;-3.50;99.90
13642;DHT22;6894;52.196;9.904;2022-11-20T05:25:58;-4.40;99.90
13642;DHT22;6894;52.196;9.904;2022-11-20T05:28:25;-4.30;99.90
13642;DHT22;6894;52.196;9.904;2022-11-20T05:30:51;-4.20;99.90
13642;DHT22;6894;52.196;9.904;2022-11-20T05:33:20;-4.40;99.90
13642;DHT22;6894;52.196;9.904;2022-11-20T05:35:47;-4.30;99.90
13642;DHT22;6894;52.196;9.904;2022-11-20T05:38:14;-4.00;99.90
13642;DHT22;6894;52.196;9.904;2022-11-20T05:40:41;-4.10;99.90
13642;DHT22;6894;52.196;9.904;2022-11-20T05:43:07;-4.00;99.90
13642;DHT22;6894;52.196;9.904;2022-11-20T05:45:34;-4.00;99.90
13642;DHT22;6894;52.196;9.904;2022-11-20T05:48:01;-4.10;99.90
13642;DHT22;6894;52.196;9.904;2022-11-20T05:50:29;-4.10;99.90
13642;DHT22;6894;52.196;9.904;2022-11-20T05:52:58;-4.10;99.90
13642;DHT22;6894;52.196;9.904;2022-11-20T05:55:24;-4.10;99.90
13642;DHT22;6894;52.196;9.904;2022-11-20T05:57:52;-4.00;99.90
13642;DHT22;6894;52.196;9.904;2022-11-20T06:00:20;-4.00;99.90
13642;DHT22;6894;52.196;9.904;2022-11-20T06:02:46;-3.90;99.90
13642;DHT22;6894;52.196;9.904;2022-11-20T06:05:13;-4.00;99.90
13642;DHT22;6894;52.196;9.904;2022-11-20T06:07:41;-3.70;99.90
13642;DHT22;6894;52.196;9.904;2022-11-20T06:10:09;-3.90;99.90
13642;DHT22;6894;52.196;9.904;2022-11-20T06:12:36;-3.90;99.90
13642;DHT22;6894;52.196;9.904;2022-11-20T06:15:03;-4.00;99.90
13642;DHT22;6894;52.196;9.904;2022-11-20T06:17:30;-3.90;99.90
13642;DHT22;6894;52.196;9.904;2022-11-20T06:19:57;-3.90;99.90
13642;DHT22;6894;52.196;9.904;2022-11-20T06:22:23;-3.80;99.90
13642;DHT22;6894;52.196;9.904;2022-11-20T06:24:51;-3.80;99.90
13642;DHT22;6894;52.196;9.904;2022-11-20T06:27:18;-3.80;99.90
13642;DHT22;6894;52.196;9.904;2022-11-20T06:29:45;-3.80;99.90
13642;DHT22;6894;52.196;9.904;2022-11-20T06:32:11;-3.70;99.90
13642;DHT22;6894;52.196;9.904;2022-11-20T06:34:38;-3.70;99.90
13642;DHT22;6894;52.196;9.904;2022-11-20T06:37:05;-3.70;99.90
13642;DHT22;6894;52.196;9.904;2022-11-20T06:39:31;-3.70;99.90
13642;DHT22;6894;52.196;9.904;2022-11-20T06:41:59;-3.70;99.90
13642;DHT22;6894;52.196;9.904;2022-11-20T06:44:26;-3.70;99.90
13642;DHT22;6894;52.196;9.904;2022-11-20T06:46:53;-3.70;99.90
13642;DHT22;6894;52.196;9.904;2022-11-20T06:49:19;-3.60;99.90
13642;DHT22;6894;52.196;9.904;2022-11-20T06:51:46;-3.60;99.90
13642;DHT22;6894;52.196;9.904;2022-11-20T06:54:13;-3.60;99.90
13642;DHT22;6894;52.196;9.904;2022-11-20T06:56:40;-3.50;99.90
13642;DHT22;6894;52.196;9.904;2022-11-20T06:59:08;-3.50;99.90
13642;DHT22;6894;52.196;9.904;2022-11-20T07:01:35;-3.40;99.90
13642;DHT22;6894;52.196;9.904;2022-11-20T07:04:01;-3.40;99.90
13642;DHT22;6894;52.196;9.904;2022-11-20T07:06:28;-3.40;99.90
13642;DHT22;6894;52.196;9.904;2022-11-20T07:08:55;-3.30;99.90
13642;DHT22;6894;52.196;9.904;2022-11-20T07:11:21;-3.20;99.90
13642;DHT22;6894;52.196;9.904;2022-11-20T07:13:48;-3.20;99.90
13642;DHT22;6894;52.196;9.904;2022-11-20T07:16:16;-3.10;99.90
13642;DHT22;6894;52.196;9.904;2022-11-20T07:18:43;-3.00;99.90
13642;DHT22;6894;52.196;9.904;2022-11-20T07:21:10;-2.90;99.90
13642;DHT22;6894;52.196;9.904;2022-11-20T07:23:37;-2.90;99.90
13642;DHT22;6894;52.196;9.904;2022-11-20T07:26:05;-2.80;99.90
13642;DHT22;6894;52.196;9.904;2022-11-20T07:28:32;-2.80;99.90
13642;DHT22;6894;52.196;9.904;2022-11-20T07:31:00;-2.80;99.90
13642;DHT22;6894;52.196;9.904;2022-11-20T07:33:28;-2.70;99.90
13642;DHT22;6894;52.196;9.904;2022-11-20T07:35:55;-2.70;99.90
13642;DHT22;6894;52.196;9.904;2022-11-20T07:38:24;-2.60;99.90
13642;DHT22;6894;52.196;9.904;2022-11-20T07:40:53;-2.50;99.90
13642;DHT22;6894;52.196;9.904;2022-11-20T07:43:20;-2.50;99.90
13642;DHT22;6894;52.196;9.904;2022-11-20T07:45:47;-2.40;99.90
13642;DHT22;6894;52.196;9.904;2022-11-20T07:48:13;-2.40;99.90
13642;DHT22;6894;52.196;9.904;2022-11-20T07:50:41;-2.40;99.90
13642;DHT22;6894;52.196;9.904;2022-11-20T07:53:08;-2.30;99.90
13642;DHT22;6894;52.196;9.904;2022-11-20T07:55:35;-2.30;99.90
13642;DHT22;6894;52.196;9.904;2022-11-20T07:58:01;-2.30;99.90
13642;DHT22;6894;52.196;9.904;2022-11-20T08:00:28;-2.20;99.90
13642;DHT22;6894;52.196;9.904;2022-11-20T08:02:55;-2.20;99.90
13642;DHT22;6894;52.196;9.904;2022-11-20T08:05:21;-2.20;99.90
13642;DHT22;6894;52.196;9.904;2022-11-20T08:07:50;-2.20;99.90
13642;DHT22;6894;52.196;9.904;2022-11-20T08:10:16;-2.10;99.90
13642;DHT22;6894;52.196;9.904;2022-11-20T08:12:45;-2.00;99.90
13642;DHT22;6894;52.196;9.904;2022-11-20T08:15:29;-2.00;99.90
13642;DHT22;6894;52.196;9.904;2022-11-20T08:18:01;-2.00;99.90
13642;DHT22;6894;52.196;9.904;2022-11-20T08:20:28;-2.00;99.90
13642;DHT22;6894;52.196;9.904;2022-11-20T08:23:00;-2.00;99.90
13642;DHT22;6894;52.196;9.904;2022-11-20T08:25:28;-1.90;99.90
13642;DHT22;6894;52.196;9.904;2022-11-20T08:27:57;-1.80;99.90
13642;DHT22;6894;52.196;9.904;2022-11-20T08:30:24;-1.80;99.90
13642;DHT22;6894;52.196;9.904;2022-11-20T08:32:51;-1.80;99.90
13642;DHT22;6894;52.196;9.904;2022-11-20T08:35:17;-1.80;99.90
13642;DHT22;6894;52.196;9.904;2022-11-20T08:37:46;-1.80;99.90
13642;DHT22;6894;52.196;9.904;2022-11-20T08:40:15;-1.70;99.90
13642;DHT22;6894;52.196;9.904;2022-11-20T08:42:51;-1.70;99.90
13642;DHT22;6894;52.196;9.904;2022-11-20T08:45:18;-1.60;99.90
13642;DHT22;6894;52.196;9.904;2022-11-20T08:47:46;-1.60;99.90
13642;DHT22;6894;52.196;9.904;2022-11-20T08:50:14;-1.50;99.90
13642;DHT22;6894;52.196;9.904;2022-11-20T08:52:41;-1.50;99.90
13642;DHT22;6894;52.196;9.904;2022-11-20T08:55:09;-1.40;99.90
13642;DHT22;6894;52.196;9.904;2022-11-20T08:57:37;-1.40;99.90
13642;DHT22;6894;52.196;9.904;2022-11-20T09:00:06;-1.40;99.90
13642;DHT22;6894;52.196;9.904;2022-11-20T09:02:33;-1.40;99.90
13642;DHT22;6894;52.196;9.904;2022-11-20T09:05:00;-1.40;99.90
13642;DHT22;6894;52.196;9.904;2022-11-20T09:07:28;-1.30;99.90
13642;DHT22;6894;52.196;9.904;2022-11-20T09:09:55;-1.30;99.90
13642;DHT22;6894;52.196;9.904;2022-11-20T09:12:22;-1.20;99.90
13642;DHT22;6894;52.196;9.904;2022-11-20T09:14:50;-1.20;99.90
13642;DHT22;6894;52.196;9.904;2022-11-20T09:17:16;-1.10;99.90
13642;DHT22;6894;52.196;9.904;2022-11-20T09:19:43;-1.10;99.90
13642;DHT22;6894;52.196;9.904;2022-11-20T09:22:10;-1.00;99.90
13642;DHT22;6894;52.196;9.904;2022-11-20T09:24:37;-1.00;99.90
13642;DHT22;6894;52.196;9.904;2022-11-20T09:27:04;-0.90;99.90
13642;DHT22;6894;52.196;9.904;2022-11-20T09:29:31;-0.80;99.90
13642;DHT22;6894;52.196;9.904;2022-11-20T09:31:59;-0.70;99.90
13642;DHT22;6894;52.196;9.904;2022-11-20T09:34:26;-0.60;99.90
13642;DHT22;6894;52.196;9.904;2022-11-20T09:36:52;-0.60;99.90
13642;DHT22;6894;52.196;9.904;2022-11-20T09:39:19;-0.50;99.90
13642;DHT22;6894;52.196;9.904;2022-11-20T09:42:00;-0.40;99.90
13642;DHT22;6894;52.196;9.904;2022-11-20T09:44:38;-0.30;99.90
13642;DHT22;6894;52.196;9.904;2022-11-20T09:47:11;-0.10;99.90
13642;DHT22;6894;52.196;9.904;2022-11-20T09:49:55;0.00;99.90
13642;DHT22;6894;52.196;9.904;2022-11-20T09:52:33;0.10;99.90
13642;DHT22;6894;52.196;9.904;2022-11-20T09:55:04;0.10;99.90
13642;DHT22;6894;52.196;9.904;2022-11-20T09:57:36;0.10;99.90
13642;DHT22;6894;52.196;9.904;2022-11-20T10:00:05;0.10;99.90
13642;DHT22;6894;52.196;9.904;2022-11-20T10:02:37;0.10;99.90
13642;DHT22;6894;52.196;9.904;2022-11-20T10:05:10;0.00;99.90
13642;DHT22;6894;52.196;9.904;2022-11-20T10:07:42;0.00;99.90
13642;DHT22;6894;52.196;9.904;2022-11-20T10:10:15;0.40;99.90
13642;DHT22;6894;52.196;9.904;2022-11-20T10:12:56;0.80;17.90
13642;DHT22;6894;52.196;9.904;2022-11-20T10:15:33;1.30;1.00
13642;DHT22;6894;52.196;9.904;2022-11-20T10:18:23;1.80;1.00
13642;DHT22;6894;52.196;9.904;2022-11-20T10:20:58;2.50;1.00
13642;DHT22;6894;52.196;9.904;2022-11-20T10:23:38;3.20;1.00
13642;DHT22;6894;52.196;9.904;2022-11-20T10:26:17;3.80;1.00
13642;DHT22;6894;52.196;9.904;2022-11-20T10:29:01;4.40;1.00
13642;DHT22;6894;52.196;9.904;2022-11-20T10:31:31;4.70;1.00
13642;DHT22;6894;52.196;9.904;2022-11-20T10:34:05;4.50;1.00
13642;DHT22;6894;52.196;9.904;2022-11-20T10:36:35;4.00;1.00
13642;DHT22;6894;52.196;9.904;2022-11-20T10:39:06;3.70;1.00
13642;DHT22;6894;52.196;9.904;2022-11-20T10:41:38;3.00;1.00
13642;DHT22;6894;52.196;9.904;2022-11-20T10:44:14;2.90;1.00
13642;DHT22;6894;52.196;9.904;2022-11-20T10:47:02;2.80;1.00
13642;DHT22;6894;52.196;9.904;2022-11-20T10:49:32;3.00;1.00
13642;DHT22;6894;52.196;9.904;2022-11-20T10:52:09;2.80;1.00
13642;DHT22;6894;52.196;9.904;2022-11-20T10:54:42;2.40;1.00
13642;DHT22;6894;52.196;9.904;2022-11-20T10:57:20;2.40;1.00
13642;DHT22;6894;52.196;9.904;2022-11-20T11:00:05;2.30;1.00
13642;DHT22;6894;52.196;9.904;2022-11-20T11:02:35;2.30;1.00
13642;DHT22;6894;52.196;9.904;2022-11-20T11:05:22;2.20;1.00
13642;DHT22;6894;52.196;9.904;2022-11-20T11:07:54;2.10;1.00
13642;DHT22;6894;52.196;9.904;2022-11-20T11:10:24;1.90;1.00
13642;DHT22;6894;52.196;9.904;2022-11-20T11:12:52;1.80;1.00
13642;DHT22;6894;52.196;9.904;2022-11-20T11:15:27;1.50;1.00
13642;DHT22;6894;52.196;9.904;2022-11-20T11:17:54;1.50;1.00
13642;DHT22;6894;52.196;9.904;2022-11-20T11:20:23;1.50;1.00
13642;DHT22;6894;52.196;9.904;2022-11-20T11:22:52;1.40;1.00
13642;DHT22;6894;52.196;9.904;2022-11-20T11:25:23;1.40;1.00
13642;DHT22;6894;52.196;9.904;2022-11-20T11:27:51;1.40;1.00
13642;DHT22;6894;52.196;9.904;2022-11-20T11:30:19;1.40;1.00
13642;DHT22;6894;52.196;9.904;2022-11-20T11:32:46;1.40;1.00
13642;DHT22;6894;52.196;9.904;2022-11-20T11:35:24;1.40;1.00
13642;DHT22;6894;52.196;9.904;2022-11-20T11:37:52;1.40;1.00
13642;DHT22;6894;52.196;9.904;2022-11-20T11:40:21;1.40;1.00
13642;DHT22;6894;52.196;9.904;2022-11-20T11:42:53;1.50;1.00
13642;DHT22;6894;52.196;9.904;2022-11-20T11:45:21;2.00;1.00
13642;DHT22;6894;52.196;9.904;2022-11-20T11:47:48;2.30;1.00
13642;DHT22;6894;52.196;9.904;2022-11-20T11:50:20;2.40;1.00
13642;DHT22;6894;52.196;9.904;2022-11-20T11:53:05;2.20;1.00
13642;DHT22;6894;52.196;9.904;2022-11-20T11:55:37;1.90;1.00
13642;DHT22;6894;52.196;9.904;2022-11-20T11:58:16;1.70;1.00
13642;DHT22;6894;52.196;9.904;2022-11-20T12:00:57;1.60;1.00
13642;DHT22;6894;52.196;9.904;2022-11-20T12:03:32;1.70;1.00
13642;DHT22;6894;52.196;9.904;2022-11-20T12:06:08;1.90;1.00
13642;DHT22;6894;52.196;9.904;2022-11-20T12:08:44;2.20;1.00
13642;DHT22;6894;52.196;9.904;2022-11-20T12:11:15;2.60;1.00
13642;DHT22;6894;52.196;9.904;2022-11-20T12:13:48;3.40;1.00
13642;DHT22;6894;52.196;9.904;2022-11-20T12:16:19;3.60;1.00
13642;DHT22;6894;52.196;9.904;2022-11-20T12:18:48;3.80;1.00
13642;DHT22;6894;52.196;9.904;2022-11-20T12:21:20;3.40;1.00
13642;DHT22;6894;52.196;9.904;2022-11-20T12:23:56;3.20;1.00
13642;DHT22;6894;52.196;9.904;2022-11-20T12:26:34;3.10;1.00
13642;DHT22;6894;52.196;9.904;2022-11-20T12:29:10;3.20;1.00
13642;DHT22;6894;52.196;9.904;2022-11-20T12:31:52;3.00;1.00
13642;DHT22;6894;52.196;9.904;2022-11-20T12:34:42;2.80;1.00
13642;DHT22;6894;52.196;9.904;2022-11-20T12:37:17;2.80;1.00
13642;DHT22;6894;52.196;9.904;2022-11-20T12:39:49;3.50;1.00
13642;DHT22;6894;52.196;9.904;2022-11-20T12:45:37;4.50;1.00
13642;DHT22;6894;52.196;9.904;2022-11-20T12:48:38;4.90;1.00
13642;DHT22;6894;52.196;9.904;2022-11-20T12:54:08;4.20;1.00
13642;DHT22;6894;52.196;9.904;2022-11-20T12:56:42;3.90;1.00
13642;DHT22;6894;52.196;9.904;2022-11-20T12:59:27;3.90;1.00
13642;DHT22;6894;52.196;9.904;2022-11-20T13:02:09;3.30;1.00
13642;DHT22;6894;52.196;9.904;2022-11-20T13:05:05;3.40;1.00
13642;DHT22;6894;52.196;9.904;2022-11-20T13:07:35;3.80;1.00
13642;DHT22;6894;52.196;9.904;2022-11-20T13:10:03;3.90;1.00
13642;DHT22;6894;52.196;9.904;2022-11-20T13:12:36;3.80;1.00
13642;DHT22;6894;52.196;9.904;2022-11-20T13:15:17;3.60;1.00
13642;DHT22;6894;52.196;9.904;2022-11-20T13:17:52;3.10;1.00
13642;DHT22;6894;52.196;9.904;2022-11-20T13:20:20;2.90;1.00
13642;DHT22;6894;52.196;9.904;2022-11-20T13:22:48;2.80;1.00
13642;DHT22;6894;52.196;9.904;2022-11-20T13:25:23;2.80;1.00
13642;DHT22;6894;52.196;9.904;2022-11-20T13:27:52;2.70;1.00
13642;DHT22;6894;52.196;9.904;2022-11-20T13:30:20;2.60;1.00
13642;DHT22;6894;52.196;9.904;2022-11-20T13:32:49;2.60;1.00
13642;DHT22;6894;52.196;9.904;2022-11-20T13:35:25;3.30;1.00
13642;DHT22;6894;52.196;9.904;2022-11-20T13:38:01;4.40;1.00
13642;DHT22;6894;52.196;9.904;2022-11-20T13:40:28;5.10;1.00
13642;DHT22;6894;52.196;9.904;2022-11-20T13:43:02;6.10;1.00
13642;DHT22;6894;52.196;9.904;2022-11-20T13:45:31;7.10;1.00
13642;DHT22;6894;52.196;9.904;2022-11-20T13:48:02;8.10;1.00
13642;DHT22;6894;52.196;9.904;2022-11-20T13:50:45;8.90;1.00
13642;DHT22;6894;52.196;9.904;2022-11-20T13:53:30;8.70;1.00
13642;DHT22;6894;52.196;9.904;2022-11-20T13:56:01;7.60;1.00
13642;DHT22;6894;52.196;9.904;2022-11-20T13:58:40;7.70;1.00
13642;DHT22;6894;52.196;9.904;2022-11-20T14:01:15;8.10;1.00
13642;DHT22;6894;52.196;9.904;2022-11-20T14:03:43;8.70;1.00
13642;DHT22;6894;52.196;9.904;2022-11-20T14:06:13;9.40;1.00
13642;DHT22;6894;52.196;9.904;2022-11-20T14:08:44;9.80;1.00
13642;DHT22;6894;52.196;9.904;2022-11-20T14:11:15;9.90;1.00
13642;DHT22;6894;52.196;9.904;2022-11-20T14:14:00;10.40;1.00
13642;DHT22;6894;52.196;9.904;2022-11-20T14:16:29;10.70;1.00
13642;DHT22;6894;52.196;9.904;2022-11-20T14:18:57;9.10;1.00
13642;DHT22;6894;52.196;9.904;2022-11-20T14:21:35;7.50;1.00
13642;DHT22;6894;52.196;9.904;2022-11-20T14:24:05;5.90;1.00
13642;DHT22;6894;52.196;9.904;2022-11-20T14:26:33;5.20;99.90
13642;DHT22;6894;52.196;9.904;2022-11-20T14:29:02;4.70;99.90
13642;DHT22;6894;52.196;9.904;2022-11-20T14:31:28;4.70;99.90
13642;DHT22;6894;52.196;9.904;2022-11-20T14:34:10;5.40;99.90
13642;DHT22;6894;52.196;9.904;2022-11-20T14:36:45;6.20;1.00
13642;DHT22;6894;52.196;9.904;2022-11-20T14:39:19;6.60;1.00
13642;DHT22;6894;52.196;9.904;2022-11-20T14:41:50;6.60;1.00
13642;DHT22;6894;52.196;9.904;2022-11-20T14:44:21;5.90;1.00
13642;DHT22;6894;52.196;9.904;2022-11-20T14:46:50;5.00;1.00
13642;DHT22;6894;52.196;9.904;2022-11-20T14:49:18;4.40;1.00
13642;DHT22;6894;52.196;9.904;2022-11-20T14:51:57;4.00;1.00
13642;DHT22;6894;52.196;9.904;2022-11-20T14:54:24;3.60;1.00
13642;DHT22;6894;52.196;9.904;2022-11-20T14:56:56;3.40;1.00
13642;DHT22;6894;52.196;9.904;2022-11-20T14:59:25;3.20;1.00
13642;DHT22;6894;52.196;9.904;2022-11-20T15:01:57;3.00;1.00
13642;DHT22;6894;52.196;9.904;2022-11-20T15:04:24;2.90;1.00
13642;DHT22;6894;52.196;9.904;2022-11-20T15:06:52;2.70;1.00
13642;DHT22;6894;52.196;9.904;2022-11-20T15:09:19;2.60;1.00
13642;DHT22;6894;52.196;9.904;2022-11-20T15:11:53;2.50;1.00
13642;DHT22;6894;52.196;9.904;2022-11-20T15:14:21;2.40;1.00
13642;DHT22;6894;52.196;9.904;2022-11-20T15:16:49;2.40;1.00
13642;DHT22;6894;52.196;9.904;2022-11-20T15:19:18;2.20;1.00
13642;DHT22;6894;52.196;9.904;2022-11-20T15:21:45;2.10;1.00
13642;DHT22;6894;52.196;9.904;2022-11-20T15:24:12;2.00;1.00
13642;DHT22;6894;52.196;9.904;2022-11-20T15:26:38;2.00;1.00
13642;DHT22;6894;52.196;9.904;2022-11-20T15:29:08;1.90;1.00
13642;DHT22;6894;52.196;9.904;2022-11-20T15:31:36;1.90;9.00
13642;DHT22;6894;52.196;9.904;2022-11-20T15:34:07;1.90;12.60
13642;DHT22;6894;52.196;9.904;2022-11-20T15:36:34;1.80;20.30
13642;DHT22;6894;52.196;9.904;2022-11-20T15:39:03;1.70;29.00
13642;DHT22;6894;52.196;9.904;2022-11-20T15:41:32;1.60;38.50
13642;DHT22;6894;52.196;9.904;2022-11-20T15:43:59;1.60;45.90
13642;DHT22;6894;52.196;9.904;2022-11-20T15:46:27;1.50;57.10
13642;DHT22;6894;52.196;9.904;2022-11-20T15:48:56;1.50;86.30
13642;DHT22;6894;52.196;9.904;2022-11-20T15:51:29;1.30;99.90
13642;DHT22;6894;52.196;9.904;2022-11-20T15:53:57;1.30;99.90
13642;DHT22;6894;52.196;9.904;2022-11-20T15:56:25;1.30;99.90
13642;DHT22;6894;52.196;9.904;2022-11-20T15:58:51;1.20;99.90
13642;DHT22;6894;52.196;9.904;2022-11-20T16:01:20;1.10;99.90
13642;DHT22;6894;52.196;9.904;2022-11-20T16:03:47;1.00;99.90
13642;DHT22;6894;52.196;9.904;2022-11-20T16:06:14;0.90;99.90
13642;DHT22;6894;52.196;9.904;2022-11-20T16:08:43;0.90;99.90
13642;DHT22;6894;52.196;9.904;2022-11-20T16:11:10;0.80;99.90
13642;DHT22;6894;52.196;9.904;2022-11-20T16:13:38;0.70;99.90
13642;DHT22;6894;52.196;9.904;2022-11-20T16:16:24;0.60;99.90
13642;DHT22;6894;52.196;9.904;2022-11-20T16:18:54;0.50;99.90